Time;durP1;ratioP1;P1;durP2;ratioP2;P2;SDS_P1;SDS_P2;PMS_P1;PMS_P2;Temp;Humidity;BMP_temperature;BMP_pressure;BME280_temperature;BME280_humidity;BME280_pressure;Samples;Min_cycle;Max_cycle;Signal;HPM_P1;HPM_P2
2021/10/23 00:01:39;;;;;;;;;;;6.40;99.90;;;;;;5041375;28;19921;-79
2021/10/23 00:04:05;;;;;;;;;;;6.40;99.90;;;;;;5023787;28;20004;-78
2021/10/23 00:06:30;;;;;;;;;;;6.40;99.90;;;;;;5024908;28;19914;-78
2021/10/23 00:08:56;;;;;;;;;;;6.40;99.90;;;;;;5026972;28;19928;-79
2021/10/23 00:11:22;;;;;;;;;;;6.30;99.90;;;;;;5030765;28;19959;-79
2021/10/23 00:13:47;;;;;;;;;;;6.40;99.90;;;;;;5025200;28;19913;-78
2021/10/23 00:16:13;;;;;;;;;;;6.30;99.90;;;;;;5029288;28;20268;-78
2021/10/23 00:18:38;;;;;;;;;;;6.30;99.90;;;;;;5034079;28;19963;-78
2021/10/23 00:21:04;;;;;;;;;;;6.40;99.90;;;;;;5034259;28;19919;-79
2021/10/23 00:23:29;;;;;;;;;;;6.40;99.90;;;;;;5032225;28;19940;-79
2021/10/23 00:25:55;;;;;;;;;;;6.40;99.90;;;;;;5032387;28;20271;-78
2021/10/23 00:28:21;;;;;;;;;;;6.40;99.90;;;;;;5031038;28;20043;-79
2021/10/23 00:30:47;;;;;;;;;;;6.40;99.90;;;;;;5049056;28;20287;-76
2021/10/23 00:33:12;;;;;;;;;;;6.30;99.90;;;;;;5029024;28;19913;-78
2021/10/23 00:35:38;;;;;;;;;;;6.30;99.90;;;;;;5023582;28;19909;-78
2021/10/23 00:38:03;;;;;;;;;;;6.30;99.90;;;;;;5040219;28;19965;-79
2021/10/23 00:40:29;;;;;;;;;;;6.30;99.90;;;;;;5034501;28;20291;-76
2021/10/23 00:42:56;;;;;;;;;;;6.30;99.90;;;;;;5034578;28;19952;-79
2021/10/23 00:45:22;;;;;;;;;;;6.40;99.90;;;;;;5032289;28;19909;-79
2021/10/23 00:47:47;;;;;;;;;;;6.30;99.90;;;;;;5036395;28;20193;-79
2021/10/23 00:50:13;;;;;;;;;;;6.30;99.90;;;;;;5036458;28;20190;-78
2021/10/23 00:52:39;;;;;;;;;;;6.30;99.90;;;;;;5037867;28;20387;-79
2021/10/23 00:55:08;;;;;;;;;;;6.20;99.90;;;;;;5022959;28;19936;-77
2021/10/23 00:57:33;;;;;;;;;;;6.20;99.90;;;;;;5024901;28;19972;-79
2021/10/23 00:59:59;;;;;;;;;;;6.20;99.90;;;;;;5042327;28;20299;-78
2021/10/23 01:02:24;;;;;;;;;;;6.10;99.90;;;;;;5041420;28;19939;-78
2021/10/23 01:04:50;;;;;;;;;;;6.10;99.90;;;;;;5049859;28;19945;-79
2021/10/23 01:07:16;;;;;;;;;;;6.10;99.90;;;;;;5030213;28;19917;-79
2021/10/23 01:09:43;;;;;;;;;;;6.20;99.90;;;;;;5046928;28;19916;-79
2021/10/23 01:12:09;;;;;;;;;;;6.20;99.90;;;;;;5030674;28;19913;-77
2021/10/23 01:14:35;;;;;;;;;;;6.20;99.90;;;;;;5033003;28;19917;-78
2021/10/23 01:17:01;;;;;;;;;;;6.20;99.90;;;;;;5032219;28;19921;-78
2021/10/23 01:19:26;;;;;;;;;;;6.20;99.90;;;;;;5020094;28;19972;-77
2021/10/23 01:21:52;;;;;;;;;;;6.20;99.90;;;;;;5034992;28;19953;-78
2021/10/23 01:24:18;;;;;;;;;;;6.20;99.90;;;;;;5052733;28;19920;-78
2021/10/23 01:26:46;;;;;;;;;;;6.20;99.90;;;;;;5035906;28;20228;-77
2021/10/23 01:29:13;;;;;;;;;;;6.20;99.90;;;;;;5035207;28;20001;-78
2021/10/23 01:31:39;;;;;;;;;;;6.20;99.90;;;;;;5036795;28;19967;-78
2021/10/23 01:34:13;;;;;;;;;;;6.20;99.90;;;;;;5035841;28;19913;-77
2021/10/23 01:36:42;;;;;;;;;;;6.20;99.90;;;;;;5022546;28;20290;-76
2021/10/23 01:39:08;;;;;;;;;;;6.20;99.90;;;;;;5037008;28;19928;-76
2021/10/23 01:41:33;;;;;;;;;;;6.20;99.90;;;;;;5034350;28;19909;-78
2021/10/23 01:43:59;;;;;;;;;;;6.20;99.90;;;;;;5036980;28;20011;-77
2021/10/23 01:46:24;;;;;;;;;;;6.20;99.90;;;;;;5028168;28;19924;-78
2021/10/23 01:48:50;;;;;;;;;;;6.20;99.90;;;;;;5036325;28;19923;-79
2021/10/23 01:51:15;;;;;;;;;;;6.20;99.90;;;;;;5034314;28;20221;-78
2021/10/23 01:53:41;;;;;;;;;;;6.10;99.90;;;;;;5036813;28;19913;-78
2021/10/23 01:56:07;;;;;;;;;;;6.20;99.90;;;;;;5035538;28;19924;-79
2021/10/23 01:58:32;;;;;;;;;;;6.20;99.90;;;;;;5024784;28;20198;-79
2021/10/23 02:00:58;;;;;;;;;;;6.20;99.90;;;;;;5034368;28;19913;-77
2021/10/23 02:03:23;;;;;;;;;;;6.10;99.90;;;;;;5036703;28;20312;-78
2021/10/23 02:05:49;;;;;;;;;;;6.00;99.90;;;;;;5033567;28;20315;-79
2021/10/23 02:08:14;;;;;;;;;;;5.90;99.90;;;;;;5047932;28;19931;-79
2021/10/23 02:10:40;;;;;;;;;;;5.90;99.90;;;;;;5022087;28;19913;-79
2021/10/23 02:13:06;;;;;;;;;;;5.80;99.90;;;;;;5035321;28;19916;-78
2021/10/23 02:15:31;;;;;;;;;;;5.70;99.90;;;;;;5035397;28;19920;-78
2021/10/23 02:17:57;;;;;;;;;;;5.60;99.90;;;;;;5028196;28;19921;-79
2021/10/23 02:20:22;;;;;;;;;;;5.60;99.90;;;;;;5029688;28;19967;-77
2021/10/23 02:22:48;;;;;;;;;;;5.50;99.90;;;;;;5033479;28;19909;-76
2021/10/23 02:25:14;;;;;;;;;;;5.50;99.90;;;;;;5030064;28;19913;-78
2021/10/23 02:27:39;;;;;;;;;;;5.50;99.90;;;;;;5031217;28;19928;-78
2021/10/23 02:30:06;;;;;;;;;;;5.60;99.90;;;;;;5035401;28;19967;-77
2021/10/23 02:32:32;;;;;;;;;;;5.60;99.90;;;;;;5036032;28;19979;-79
2021/10/23 02:34:57;;;;;;;;;;;5.60;99.90;;;;;;5050826;28;20316;-78
2021/10/23 02:37:23;;;;;;;;;;;5.70;99.90;;;;;;5031964;28;19913;-77
2021/10/23 02:39:49;;;;;;;;;;;5.80;99.90;;;;;;5035287;28;19975;-78
2021/10/23 02:42:14;;;;;;;;;;;5.80;99.90;;;;;;5034760;28;19924;-78
2021/10/23 02:44:40;;;;;;;;;;;5.70;99.90;;;;;;5031984;28;20281;-79
2021/10/23 02:47:05;;;;;;;;;;;5.70;99.90;;;;;;5033508;28;19996;-78
2021/10/23 02:49:31;;;;;;;;;;;5.70;99.90;;;;;;5031483;28;19917;-77
2021/10/23 02:51:56;;;;;;;;;;;5.70;99.90;;;;;;5033026;28;20017;-79
2021/10/23 02:54:22;;;;;;;;;;;5.60;99.90;;;;;;5027147;28;19947;-77
2021/10/23 02:56:48;;;;;;;;;;;5.60;99.90;;;;;;5035297;28;20024;-76
2021/10/23 02:59:13;;;;;;;;;;;5.60;99.90;;;;;;5035163;28;19913;-76
2021/10/23 03:01:39;;;;;;;;;;;5.60;99.90;;;;;;5032114;28;19963;-78
2021/10/23 03:04:05;;;;;;;;;;;5.60;99.90;;;;;;5031162;28;19921;-77
2021/10/23 03:06:31;;;;;;;;;;;5.70;99.90;;;;;;5030661;28;19920;-78
2021/10/23 03:08:56;;;;;;;;;;;5.60;99.90;;;;;;5048538;28;19913;-76
2021/10/23 03:11:22;;;;;;;;;;;5.60;99.90;;;;;;5034318;28;19909;-76
2021/10/23 03:13:48;;;;;;;;;;;5.60;99.90;;;;;;5032751;28;19917;-77
2021/10/23 03:16:13;;;;;;;;;;;5.60;99.90;;;;;;5035408;28;20304;-79
2021/10/23 03:18:39;;;;;;;;;;;5.60;99.90;;;;;;5046939;28;19917;-77
2021/10/23 03:21:06;;;;;;;;;;;5.60;99.90;;;;;;5034965;28;20281;-76
2021/10/23 03:23:31;;;;;;;;;;;5.50;99.90;;;;;;5035321;28;19909;-78
2021/10/23 03:25:57;;;;;;;;;;;5.40;99.90;;;;;;5023163;28;19913;-76
2021/10/23 03:28:22;;;;;;;;;;;5.40;99.90;;;;;;5027605;28;19944;-75
2021/10/23 03:30:48;;;;;;;;;;;5.30;99.90;;;;;;5034934;28;20003;-76
2021/10/23 03:33:14;;;;;;;;;;;5.40;99.90;;;;;;5035342;28;19913;-76
2021/10/23 03:35:39;;;;;;;;;;;5.40;99.90;;;;;;5017185;28;20331;-78
2021/10/23 03:38:05;;;;;;;;;;;5.40;99.90;;;;;;5034190;28;19913;-78
2021/10/23 03:40:31;;;;;;;;;;;5.30;99.90;;;;;;5034052;28;19909;-79
2021/10/23 03:42:56;;;;;;;;;;;5.20;99.90;;;;;;5034027;28;19909;-78
2021/10/23 03:45:22;;;;;;;;;;;5.20;99.90;;;;;;5032938;28;19914;-76
2021/10/23 03:47:48;;;;;;;;;;;5.20;99.90;;;;;;5034560;28;19925;-78
2021/10/23 03:50:13;;;;;;;;;;;5.20;99.90;;;;;;5050282;28;20004;-78
2021/10/23 03:52:39;;;;;;;;;;;5.20;99.90;;;;;;5030709;28;19937;-78
2021/10/23 03:55:05;;;;;;;;;;;5.20;99.90;;;;;;5033634;28;20004;-76
2021/10/23 03:57:30;;;;;;;;;;;5.30;99.90;;;;;;5033772;28;19949;-75
2021/10/23 03:59:56;;;;;;;;;;;5.30;99.90;;;;;;5033718;28;19913;-79
2021/10/23 04:02:22;;;;;;;;;;;5.40;99.90;;;;;;5033713;28;19925;-76
2021/10/23 04:04:48;;;;;;;;;;;5.30;99.90;;;;;;5032352;28;19916;-77
2021/10/23 04:07:13;;;;;;;;;;;5.30;99.90;;;;;;5043806;28;19914;-76
2021/10/23 04:09:39;;;;;;;;;;;5.30;99.90;;;;;;5032066;28;19917;-77
2021/10/23 04:12:04;;;;;;;;;;;5.20;99.90;;;;;;5047102;28;19963;-77
2021/10/23 04:14:30;;;;;;;;;;;5.20;99.90;;;;;;5035306;28;20251;-79
2021/10/23 04:16:56;;;;;;;;;;;5.20;99.90;;;;;;5036849;28;20019;-78
2021/10/23 04:19:21;;;;;;;;;;;5.20;99.90;;;;;;5036517;28;19909;-78
2021/10/23 04:21:47;;;;;;;;;;;5.10;99.90;;;;;;5029752;28;19967;-78
2021/10/23 04:24:12;;;;;;;;;;;5.10;99.90;;;;;;5038584;28;19909;-78
2021/10/23 04:26:38;;;;;;;;;;;5.20;99.90;;;;;;5037420;28;20003;-78
2021/10/23 04:29:04;;;;;;;;;;;5.20;99.90;;;;;;5030903;28;19925;-78
2021/10/23 04:31:30;;;;;;;;;;;5.20;99.90;;;;;;5037138;28;19917;-75
2021/10/23 04:33:55;;;;;;;;;;;5.20;99.90;;;;;;5036000;28;19916;-77
2021/10/23 04:36:21;;;;;;;;;;;5.20;99.90;;;;;;5037227;28;19920;-78
2021/10/23 04:38:47;;;;;;;;;;;5.20;99.90;;;;;;5036395;28;19992;-77
2021/10/23 04:41:13;;;;;;;;;;;5.30;99.90;;;;;;5033740;28;20247;-78
2021/10/23 04:43:38;;;;;;;;;;;5.30;99.90;;;;;;5037368;28;19932;-76
2021/10/23 04:46:04;;;;;;;;;;;5.30;99.90;;;;;;5036879;28;19964;-78
2021/10/23 04:48:31;;;;;;;;;;;5.30;99.90;;;;;;5036916;28;19944;-78
2021/10/23 04:50:56;;;;;;;;;;;5.30;99.90;;;;;;5034526;28;19913;-78
2021/10/23 04:53:22;;;;;;;;;;;5.40;99.90;;;;;;5036234;28;19913;-78
2021/10/23 04:55:47;;;;;;;;;;;5.50;99.90;;;;;;5034317;28;20271;-76
2021/10/23 04:58:13;;;;;;;;;;;5.50;99.90;;;;;;5035194;28;20285;-79
2021/10/23 05:00:39;;;;;;;;;;;5.50;99.90;;;;;;5035001;28;19942;-77
2021/10/23 05:03:04;;;;;;;;;;;5.50;99.90;;;;;;5027964;28;20352;-79
2021/10/23 05:05:30;;;;;;;;;;;5.50;99.90;;;;;;5029721;28;20001;-79
2021/10/23 05:07:56;;;;;;;;;;;5.50;99.90;;;;;;5037216;28;19913;-78
2021/10/23 05:10:21;;;;;;;;;;;5.50;99.90;;;;;;5035420;28;19923;-78
2021/10/23 05:12:47;;;;;;;;;;;5.50;99.90;;;;;;5025326;28;19917;-79
2021/10/23 05:15:12;;;;;;;;;;;5.60;99.90;;;;;;5035445;28;19999;-79
2021/10/23 05:17:38;;;;;;;;;;;5.50;99.90;;;;;;5037168;28;19920;-77
2021/10/23 05:20:04;;;;;;;;;;;5.50;99.90;;;;;;5035755;28;19909;-79
2021/10/23 05:22:30;;;;;;;;;;;5.50;99.90;;;;;;5025076;28;19917;-79
2021/10/23 05:24:55;;;;;;;;;;;5.50;99.90;;;;;;5036494;28;20039;-79
2021/10/23 05:27:21;;;;;;;;;;;5.40;99.90;;;;;;5032413;28;19914;-76
2021/10/23 05:29:46;;;;;;;;;;;5.40;99.90;;;;;;5052287;28;19909;-79
2021/10/23 05:32:12;;;;;;;;;;;5.40;99.90;;;;;;5029795;28;20316;-79
2021/10/23 05:34:37;;;;;;;;;;;5.40;99.90;;;;;;5023541;28;20036;-79
2021/10/23 05:37:03;;;;;;;;;;;5.30;99.90;;;;;;5035968;28;19996;-79
2021/10/23 05:39:29;;;;;;;;;;;5.30;99.90;;;;;;5033939;28;19913;-78
2021/10/23 05:41:54;;;;;;;;;;;5.30;99.90;;;;;;5023576;28;19928;-77
2021/10/23 05:44:20;;;;;;;;;;;5.30;99.90;;;;;;5032311;28;20301;-79
2021/10/23 05:46:45;;;;;;;;;;;5.30;99.90;;;;;;5035917;28;20217;-76
2021/10/23 05:49:11;;;;;;;;;;;5.20;99.90;;;;;;5034186;28;20259;-79
2021/10/23 05:51:37;;;;;;;;;;;5.20;99.90;;;;;;5035558;28;19913;-76
2021/10/23 05:54:02;;;;;;;;;;;5.20;99.90;;;;;;5027742;28;19948;-79
2021/10/23 05:56:28;;;;;;;;;;;5.20;99.90;;;;;;5036444;28;19917;-77
2021/10/23 05:58:59;;;;;;;;;;;5.20;99.90;;;;;;5034435;28;19921;-79
2021/10/23 06:01:25;;;;;;;;;;;5.30;99.90;;;;;;5037189;28;19917;-78
2021/10/23 06:03:51;;;;;;;;;;;5.30;99.90;;;;;;5031982;28;20003;-79
2021/10/23 06:06:17;;;;;;;;;;;5.40;99.90;;;;;;5031259;28;20003;-78
2021/10/23 06:08:44;;;;;;;;;;;5.40;99.90;;;;;;5032979;28;19924;-76
2021/10/23 06:11:09;;;;;;;;;;;5.40;99.90;;;;;;5035353;28;20216;-79
2021/10/23 06:13:35;;;;;;;;;;;5.50;99.90;;;;;;5033492;28;19932;-77
2021/10/23 06:16:01;;;;;;;;;;;5.50;99.90;;;;;;5034395;28;19952;-78
2021/10/23 06:18:27;;;;;;;;;;;5.50;99.90;;;;;;5034868;28;19913;-79
2021/10/23 06:20:52;;;;;;;;;;;5.50;99.90;;;;;;5033044;28;19920;-79
2021/10/23 06:23:18;;;;;;;;;;;5.60;99.90;;;;;;5034370;28;19966;-78
2021/10/23 06:25:44;;;;;;;;;;;5.60;99.90;;;;;;5033970;28;19962;-80
2021/10/23 06:28:09;;;;;;;;;;;5.60;99.90;;;;;;5033765;28;19921;-79
2021/10/23 06:30:35;;;;;;;;;;;5.60;99.90;;;;;;5034359;28;19913;-77
2021/10/23 06:33:00;;;;;;;;;;;5.60;99.90;;;;;;5031165;28;19938;-76
2021/10/23 06:35:26;;;;;;;;;;;5.60;99.90;;;;;;5029733;28;19927;-78
2021/10/23 06:37:52;;;;;;;;;;;5.70;99.90;;;;;;5029914;28;19988;-78
2021/10/23 06:40:20;;;;;;;;;;;5.70;99.90;;;;;;5035318;28;19924;-78
2021/10/23 06:42:46;;;;;;;;;;;5.70;99.90;;;;;;5032964;28;20329;-79
2021/10/23 06:45:13;;;;;;;;;;;5.80;99.90;;;;;;5033828;28;19917;-76
2021/10/23 06:47:39;;;;;;;;;;;5.90;99.90;;;;;;5049754;28;19914;-78
2021/10/23 06:50:06;;;;;;;;;;;5.90;99.90;;;;;;5032755;28;19940;-80
2021/10/23 06:52:32;;;;;;;;;;;6.00;99.90;;;;;;5033401;28;19925;-79
2021/10/23 06:54:57;;;;;;;;;;;5.90;99.90;;;;;;5033310;28;19917;-79
2021/10/23 06:57:23;;;;;;;;;;;6.00;99.90;;;;;;5035669;28;20015;-79
2021/10/23 06:59:48;;;;;;;;;;;6.00;99.90;;;;;;5034421;28;19959;-77
2021/10/23 07:02:14;;;;;;;;;;;6.10;99.90;;;;;;5027612;28;19940;-78
2021/10/23 07:04:40;;;;;;;;;;;6.20;99.90;;;;;;5030810;28;20322;-79
2021/10/23 07:07:05;;;;;;;;;;;6.20;99.90;;;;;;5033998;28;20292;-80
2021/10/23 07:09:37;;;;;;;;;;;6.20;99.90;;;;;;5030185;28;20607;-79
2021/10/23 07:12:03;;;;;;;;;;;6.20;99.90;;;;;;5032405;28;19921;-78
2021/10/23 07:14:28;;;;;;;;;;;6.30;99.90;;;;;;5033579;28;19959;-79
2021/10/23 07:16:54;;;;;;;;;;;6.40;99.90;;;;;;5029952;28;19917;-79
2021/10/23 07:19:19;;;;;;;;;;;6.40;99.90;;;;;;5031220;28;20309;-79
2021/10/23 07:21:45;;;;;;;;;;;6.50;99.90;;;;;;5032143;28;19917;-79
2021/10/23 07:24:11;;;;;;;;;;;6.60;99.90;;;;;;5034358;28;20215;-79
2021/10/23 07:26:37;;;;;;;;;;;6.60;99.90;;;;;;5049504;23;19952;-79
2021/10/23 07:29:05;;;;;;;;;;;6.70;99.90;;;;;;5049357;28;20313;-79
2021/10/23 07:31:31;;;;;;;;;;;6.80;99.90;;;;;;5058755;28;20261;-79
2021/10/23 07:33:57;;;;;;;;;;;6.90;99.90;;;;;;5051181;28;19912;-79
2021/10/23 07:36:23;;;;;;;;;;;7.00;99.90;;;;;;5052207;28;20224;-79
2021/10/23 07:38:48;;;;;;;;;;;7.00;99.90;;;;;;5051201;28;19924;-80
2021/10/23 07:41:15;;;;;;;;;;;7.00;99.90;;;;;;5049446;28;20100;-78
2021/10/23 07:43:41;;;;;;;;;;;7.10;99.90;;;;;;5065427;28;19920;-78
2021/10/23 07:46:07;;;;;;;;;;;7.10;99.90;;;;;;5051623;28;19920;-79
2021/10/23 07:48:34;;;;;;;;;;;7.20;99.90;;;;;;5051817;28;20216;-79
2021/10/23 07:51:00;;;;;;;;;;;7.30;99.90;;;;;;5052176;28;20390;-79
2021/10/23 07:53:25;;;;;;;;;;;7.30;99.90;;;;;;5053920;28;19964;-76
2021/10/23 07:55:51;;;;;;;;;;;7.40;99.90;;;;;;5049064;28;19948;-78
2021/10/23 07:58:17;;;;;;;;;;;7.50;99.90;;;;;;5053327;28;19931;-79
2021/10/23 08:00:42;;;;;;;;;;;7.50;99.90;;;;;;5052789;28;19909;-80
2021/10/23 08:03:08;;;;;;;;;;;7.50;99.90;;;;;;5055039;28;19916;-80
2021/10/23 08:05:34;;;;;;;;;;;7.60;99.90;;;;;;5052315;28;19919;-80
2021/10/23 08:08:01;;;;;;;;;;;7.60;99.90;;;;;;5049988;28;19975;-79
2021/10/23 08:10:27;;;;;;;;;;;7.70;99.90;;;;;;5066303;28;19920;-79
2021/10/23 08:12:53;;;;;;;;;;;7.80;99.90;;;;;;5052725;28;19909;-79
2021/10/23 08:15:19;;;;;;;;;;;7.80;99.90;;;;;;5053509;28;19917;-80
2021/10/23 08:17:45;;;;;;;;;;;7.90;99.90;;;;;;5054231;28;19914;-79
2021/10/23 08:20:11;;;;;;;;;;;8.00;99.90;;;;;;5051793;28;19974;-79
2021/10/23 08:22:37;;;;;;;;;;;8.00;99.90;;;;;;5053912;28;19917;-80
2021/10/23 08:25:04;;;;;;;;;;;8.10;99.90;;;;;;5055325;28;19940;-79
2021/10/23 08:27:32;;;;;;;;;;;8.10;99.90;;;;;;5049693;28;19964;-78
2021/10/23 08:30:00;;;;;;;;;;;8.20;99.90;;;;;;5060336;28;19920;-81
2021/10/23 08:32:25;;;;;;;;;;;8.30;99.90;;;;;;5052657;28;20355;-81
2021/10/23 08:34:51;;;;;;;;;;;8.30;99.90;;;;;;5052023;28;19920;-80
2021/10/23 08:37:16;;;;;;;;;;;8.30;99.90;;;;;;5052555;28;19917;-81
2021/10/23 08:39:42;;;;;;;;;;;8.40;99.90;;;;;;5048845;28;19939;-79
2021/10/23 08:42:08;;;;;;;;;;;8.40;99.90;;;;;;5050309;28;19917;-80
2021/10/23 08:44:36;;;;;;;;;;;8.50;99.90;;;;;;5052511;28;19917;-80
2021/10/23 08:47:02;;;;;;;;;;;8.60;99.90;;;;;;5053394;28;19916;-81
2021/10/23 08:49:28;;;;;;;;;;;8.60;99.90;;;;;;5053471;28;19921;-81
2021/10/23 08:51:53;;;;;;;;;;;8.70;99.90;;;;;;5051457;28;20039;-80
2021/10/23 08:54:19;;;;;;;;;;;8.80;99.90;;;;;;5050068;28;19966;-81
2021/10/23 08:56:44;;;;;;;;;;;8.80;99.90;;;;;;5048730;28;19916;-80
2021/10/23 08:59:10;;;;;;;;;;;8.90;99.90;;;;;;5068733;28;19913;-78
2021/10/23 09:01:36;;;;;;;;;;;9.00;99.90;;;;;;5051344;28;19951;-80
2021/10/23 09:04:01;;;;;;;;;;;9.10;99.90;;;;;;5057038;28;19913;-81
2021/10/23 09:06:35;;;;;;;;;;;9.10;99.90;;;;;;5059087;28;19913;-81
2021/10/23 09:09:02;;;;;;;;;;;9.20;99.90;;;;;;5058492;28;19952;-80
2021/10/23 09:11:32;;;;;;;;;;;9.40;99.90;;;;;;5055618;28;20374;-81
2021/10/23 09:14:17;;;;;;;;;;;9.50;99.90;;;;;;5056456;28;19919;-80
2021/10/23 09:16:44;;;;;;;;;;;9.60;99.90;;;;;;5046883;28;19924;-80
2021/10/23 09:19:10;;;;;;;;;;;9.70;99.90;;;;;;5049886;28;19913;-79
2021/10/23 09:21:38;;;;;;;;;;;9.80;99.90;;;;;;5049389;28;19915;-81
2021/10/23 09:24:22;;;;;;;;;;;10.00;99.90;;;;;;5051986;28;19923;-81
2021/10/23 09:26:50;;;;;;;;;;;10.10;99.90;;;;;;5056206;28;19927;-81
2021/10/23 09:29:18;;;;;;;;;;;10.30;99.90;;;;;;5054719;28;20274;-81
2021/10/23 09:31:45;;;;;;;;;;;10.50;99.90;;;;;;5070333;28;19942;-82
2021/10/23 09:34:12;;;;;;;;;;;10.60;99.90;;;;;;5068792;28;19927;-81
2021/10/23 09:36:57;;;;;;;;;;;10.80;99.90;;;;;;5056268;28;19917;-81
2021/10/23 09:39:35;;;;;;;;;;;10.80;99.90;;;;;;5054744;28;19921;-81
2021/10/23 09:42:15;;;;;;;;;;;10.90;99.90;;;;;;5059036;28;19912;-80
2021/10/23 09:45:03;;;;;;;;;;;10.90;99.90;;;;;;5055666;28;19920;-80
2021/10/23 09:47:30;;;;;;;;;;;11.00;99.90;;;;;;5051889;28;19921;-80
2021/10/23 09:50:06;;;;;;;;;;;10.90;99.90;;;;;;5056071;28;19919;-81
2021/10/23 09:52:55;;;;;;;;;;;10.90;99.90;;;;;;5052918;28;19939;-82
2021/10/23 09:55:21;;;;;;;;;;;10.90;99.90;;;;;;5053565;28;19913;-81
2021/10/23 09:58:03;;;;;;;;;;;10.90;99.90;;;;;;5052413;28;19912;-79
2021/10/23 10:00:29;;;;;;;;;;;10.90;99.90;;;;;;5052043;28;20007;-80
2021/10/23 10:02:55;;;;;;;;;;;10.90;99.90;;;;;;5054299;28;20031;-81
2021/10/23 10:05:20;;;;;;;;;;;10.90;99.90;;;;;;5068858;28;20233;-82
2021/10/23 10:07:46;;;;;;;;;;;10.90;99.90;;;;;;5053880;28;19919;-82
2021/10/23 10:10:14;;;;;;;;;;;10.90;99.90;;;;;;5052133;28;19920;-81
2021/10/23 10:12:40;;;;;;;;;;;10.90;99.90;;;;;;5054700;28;19921;-80
2021/10/23 10:15:07;;;;;;;;;;;10.90;99.90;;;;;;5052446;28;19920;-81
2021/10/23 10:17:33;;;;;;;;;;;10.90;99.90;;;;;;5053825;28;19992;-81
2021/10/23 10:19:59;;;;;;;;;;;10.90;99.90;;;;;;5062671;28;19967;-82
2021/10/23 10:22:24;;;;;;;;;;;10.90;99.90;;;;;;5054257;28;19927;-81
2021/10/23 10:24:50;;;;;;;;;;;10.90;99.90;;;;;;5053917;28;19920;-81
2021/10/23 10:27:20;;;;;;;;;;;11.00;99.90;;;;;;5052222;28;19971;-82
2021/10/23 10:29:54;;;;;;;;;;;11.00;99.90;;;;;;5053751;28;19921;-81
2021/10/23 10:32:34;;;;;;;;;;;11.00;99.90;;;;;;5048378;28;19944;-80
2021/10/23 10:42:53;;;;;;;;;;;11.00;99.90;;;;;;5053472;28;19974;-82
2021/10/23 10:45:40;;;;;;;;;;;11.00;99.90;;;;;;5050932;28;19932;-81
2021/10/23 10:48:16;;;;;;;;;;;11.10;99.90;;;;;;5051692;28;19921;-80
2021/10/23 10:50:49;;;;;;;;;;;11.10;99.90;;;;;;5067026;28;19913;-81
2021/10/23 10:53:16;;;;;;;;;;;11.10;99.90;;;;;;5054310;28;19921;-81
2021/10/23 10:55:44;;;;;;;;;;;11.20;99.90;;;;;;5061651;28;19920;-82
2021/10/23 10:58:10;;;;;;;;;;;11.10;99.90;;;;;;5059391;28;20371;-80
2021/10/23 11:00:45;;;;;;;;;;;11.20;99.90;;;;;;5046220;28;19951;-82
2021/10/23 11:03:29;;;;;;;;;;;11.20;99.90;;;;;;5055337;28;19913;-83
2021/10/23 11:05:55;;;;;;;;;;;11.20;99.90;;;;;;5056006;28;19921;-83
2021/10/23 11:08:20;;;;;;;;;;;11.20;99.90;;;;;;5055115;28;19916;-82
2021/10/23 11:10:49;;;;;;;;;;;11.20;99.90;;;;;;5053458;28;19974;-83
2021/10/23 11:13:31;;;;;;;;;;;11.20;99.90;;;;;;5069256;28;20215;-82
2021/10/23 11:15:56;;;;;;;;;;;11.20;99.90;;;;;;5051792;28;19917;-83
2021/10/23 11:18:22;;;;;;;;;;;11.30;99.90;;;;;;5053916;28;19913;-83
2021/10/23 11:20:51;;;;;;;;;;;11.30;99.90;;;;;;5054031;28;20003;-83
2021/10/23 11:23:23;;;;;;;;;;;11.30;99.90;;;;;;5061676;28;20004;-84
2021/10/23 11:25:49;;;;;;;;;;;11.30;99.90;;;;;;5068460;28;19916;-83
2021/10/23 11:28:14;;;;;;;;;;;11.30;99.90;;;;;;5052972;28;19921;-86
2021/10/23 11:30:41;;;;;;;;;;;11.30;99.90;;;;;;5053266;28;19971;-83
2021/10/23 11:33:09;;;;;;;;;;;11.30;99.90;;;;;;5048679;28;20374;-84
2021/10/23 11:35:38;;;;;;;;;;;11.30;99.90;;;;;;5053845;28;20006;-83
2021/10/23 11:38:05;;;;;;;;;;;11.30;99.90;;;;;;5062857;28;19923;-83
2021/10/23 11:40:31;;;;;;;;;;;11.40;99.90;;;;;;5057398;28;20317;-84
2021/10/23 11:42:56;;;;;;;;;;;11.50;99.90;;;;;;5050175;28;20003;-84
2021/10/23 11:45:23;;;;;;;;;;;11.50;99.90;;;;;;5051861;28;19913;-84
2021/10/23 11:47:50;;;;;;;;;;;11.60;99.90;;;;;;5052687;28;20007;-85
2021/10/23 11:50:20;;;;;;;;;;;11.60;99.90;;;;;;5054271;28;19921;-84
2021/10/23 11:52:51;;;;;;;;;;;11.60;99.90;;;;;;5047510;28;19919;-84
2021/10/23 11:55:35;;;;;;;;;;;11.60;99.90;;;;;;5052578;28;19950;-84
2021/10/23 11:58:02;;;;;;;;;;;11.60;99.90;;;;;;5050216;28;19913;-86
2021/10/23 12:00:31;;;;;;;;;;;11.60;99.90;;;;;;5053099;28;19942;-84
2021/10/23 12:03:02;;;;;;;;;;;11.60;99.90;;;;;;5053911;28;19917;-85
2021/10/23 12:05:28;;;;;;;;;;;11.50;99.90;;;;;;5053761;28;20307;-84
2021/10/23 12:08:12;;;;;;;;;;;11.50;99.90;;;;;;5050771;28;19965;-83
2021/10/23 12:10:56;;;;;;;;;;;11.60;99.90;;;;;;5054410;28;19917;-83
2021/10/23 12:13:23;;;;;;;;;;;11.60;99.90;;;;;;5057837;28;20008;-83
2021/10/23 12:16:02;;;;;;;;;;;11.60;99.90;;;;;;5054002;28;19913;-85
2021/10/23 12:18:42;;;;;;;;;;;11.70;99.90;;;;;;5063946;28;19917;-84
2021/10/23 12:21:21;;;;;;;;;;;11.70;99.90;;;;;;5057025;28;19916;-83
2021/10/23 12:23:49;;;;;;;;;;;11.70;99.90;;;;;;5072398;28;20218;-84
2021/10/23 12:26:15;;;;;;;;;;;11.70;99.90;;;;;;5054308;28;19955;-85
2021/10/23 12:28:56;;;;;;;;;;;11.70;99.90;;;;;;5054727;28;19917;-86
2021/10/23 12:31:22;;;;;;;;;;;11.70;99.90;;;;;;5055338;28;20304;-85
2021/10/23 12:34:05;;;;;;;;;;;11.70;99.90;;;;;;5050586;28;19923;-85
2021/10/23 12:36:31;;;;;;;;;;;11.60;99.90;;;;;;5061841;28;19938;-83
2021/10/23 12:39:15;;;;;;;;;;;11.60;99.90;;;;;;5060876;28;20323;-86
2021/10/23 12:41:41;;;;;;;;;;;11.60;99.90;;;;;;5056542;28;20203;-85
2021/10/23 12:44:07;;;;;;;;;;;11.60;99.90;;;;;;5066647;28;20003;-86
2021/10/23 12:46:33;;;;;;;;;;;11.60;99.90;;;;;;5059553;28;19913;-85
2021/10/23 12:48:58;;;;;;;;;;;11.50;99.90;;;;;;5054810;28;20265;-85
2021/10/23 12:51:24;;;;;;;;;;;11.60;99.90;;;;;;5058561;28;19956;-85
2021/10/23 12:53:49;;;;;;;;;;;11.60;99.90;;;;;;5059632;28;19917;-82
2021/10/23 12:56:15;;;;;;;;;;;11.60;99.90;;;;;;5057062;28;20330;-86
2021/10/23 12:58:41;;;;;;;;;;;11.70;99.90;;;;;;5058113;28;19966;-84
2021/10/23 13:01:06;;;;;;;;;;;11.70;99.90;;;;;;5054866;28;19923;-86
2021/10/23 13:03:32;;;;;;;;;;;11.70;99.90;;;;;;5061059;28;19920;-86
2021/10/23 13:05:57;;;;;;;;;;;11.70;99.90;;;;;;5054601;28;19913;-86
2021/10/23 13:08:23;;;;;;;;;;;11.60;99.90;;;;;;5057245;28;19916;-87
2021/10/23 13:10:49;;;;;;;;;;;11.70;99.90;;;;;;5053127;28;20401;-86
2021/10/23 13:13:14;;;;;;;;;;;11.60;99.90;;;;;;5054921;28;19995;-87
2021/10/23 13:15:40;;;;;;;;;;;11.60;99.90;;;;;;5058750;28;19937;-81
2021/10/23 13:18:05;;;;;;;;;;;11.70;99.90;;;;;;5048391;28;19913;-85
2021/10/23 13:20:31;;;;;;;;;;;11.60;99.90;;;;;;5057253;28;19913;-85
2021/10/23 13:22:57;;;;;;;;;;;11.60;99.90;;;;;;5058076;28;19913;-85
2021/10/23 13:25:22;;;;;;;;;;;11.60;99.90;;;;;;5063598;28;20292;-85
2021/10/23 13:27:48;;;;;;;;;;;11.60;99.90;;;;;;5044128;28;19924;-84
2021/10/23 13:30:16;;;;;;;;;;;11.60;99.90;;;;;;5057044;28;19912;-85
2021/10/23 13:32:41;;;;;;;;;;;11.60;99.90;;;;;;5051946;28;19913;-83
2021/10/23 13:35:07;;;;;;;;;;;11.60;99.90;;;;;;5057677;28;19912;-85
2021/10/23 13:37:33;;;;;;;;;;;11.50;99.90;;;;;;5065473;28;20023;-84
2021/10/23 13:39:58;;;;;;;;;;;11.50;99.90;;;;;;5057390;28;19917;-85
2021/10/23 13:42:25;;;;;;;;;;;11.60;99.90;;;;;;5055951;28;19928;-85
2021/10/23 13:44:51;;;;;;;;;;;11.60;99.90;;;;;;5053599;28;19913;-85
2021/10/23 13:47:19;;;;;;;;;;;11.60;99.90;;;;;;5056115;28;19920;-85
2021/10/23 13:49:44;;;;;;;;;;;11.60;99.90;;;;;;5064115;28;19922;-85
2021/10/23 13:52:10;;;;;;;;;;;11.50;99.90;;;;;;5056309;28;21003;-85
2021/10/23 13:54:36;;;;;;;;;;;11.60;99.90;;;;;;5056528;28;19970;-85
2021/10/23 13:57:01;;;;;;;;;;;11.60;99.90;;;;;;5058392;28;20296;-84
2021/10/23 13:59:27;;;;;;;;;;;11.50;99.90;;;;;;5055599;28;19947;-85
2021/10/23 14:01:54;;;;;;;;;;;11.50;99.90;;;;;;5055797;28;19913;-85
2021/10/23 14:04:20;;;;;;;;;;;11.50;99.90;;;;;;5060104;28;19920;-80
2021/10/23 14:06:48;;;;;;;;;;;11.60;99.90;;;;;;5054494;28;19919;-84
2021/10/23 14:09:15;;;;;;;;;;;11.50;99.90;;;;;;5065776;28;19916;-85
2021/10/23 14:11:40;;;;;;;;;;;11.50;99.90;;;;;;5055069;28;20494;-81
2021/10/23 14:14:06;;;;;;;;;;;11.50;99.90;;;;;;5056979;28;19958;-85
2021/10/23 14:16:32;;;;;;;;;;;11.50;99.90;;;;;;5057867;28;19913;-84
2021/10/23 14:18:58;;;;;;;;;;;11.50;99.90;;;;;;5054426;28;19958;-84
2021/10/23 14:21:23;;;;;;;;;;;11.50;99.90;;;;;;5050770;28;19919;-83
2021/10/23 14:23:49;;;;;;;;;;;11.50;99.90;;;;;;5053923;28;19917;-85
2021/10/23 14:26:17;;;;;;;;;;;11.60;99.90;;;;;;5054732;28;19931;-85
2021/10/23 14:28:44;;;;;;;;;;;11.50;99.90;;;;;;5070321;28;19916;-85
2021/10/23 14:31:15;;;;;;;;;;;11.50;99.90;;;;;;5051301;28;19917;-84
2021/10/23 14:33:41;;;;;;;;;;;11.50;99.90;;;;;;5053520;28;19939;-85